Terminal Aerodrome Forecast
Issued by NWS Cleveland, OH

Home | Current Version | Previous Version | Graphics & Text | Print | Product List | Glossary On
Versions: 1 2 3 4 5 6 7 8 9 10 11 12 13 14 15 16 17 18 19 20 21 22 23 24
848
FTUS41 KCLE 230925 AAB
TAFCLE
TAF AMD
KCLE 230925Z 2309/2412 19010KT P6SM VCSH BKN025 OVC080
      TEMPO 2310/2313 5SM -SHRA OVC018
     FM231300 20012KT 6SM -SHRA OVC015
     FM231500 22012KT 5SM -SHRA VCTS OVC015CB
      TEMPO 2316/2319 24012G20KT 1SM TSRA OVC005CB
     FM232000 24010G20KT 5SM -SHRA OVC018
     FM232300 27005KT P6SM OVC025
     FM240700 30006KT P6SM SCT050=

USA.gov is the U.S. government's official web portal to all federal, state and local government web resources and services.